Time;durP1;ratioP1;P1;durP2;ratioP2;P2;SDS_P1;SDS_P2;PMS_P1;PMS_P2;Temp;Humidity;BMP_temperature;BMP_pressure;BME280_temperature;BME280_humidity;BME280_pressure;Samples;Min_cycle;Max_cycle;Signal;HPM_P1;HPM_P2
2021/06/19 05:34:33;;;;;;;2.80;1.48;;;25.70;55.20;;;;;;2570574;53;24001;-64
2021/06/19 05:37:00;;;;;;;3.25;1.73;;;25.80;55.70;;;;;;2356273;53;21010;-64
2021/06/19 05:39:26;;;;;;;3.50;1.92;;;25.80;55.80;;;;;;2320754;53;21035;-64
2021/06/19 05:41:52;;;;;;;4.40;2.50;;;25.90;56.10;;;;;;2568850;53;21039;-66
2021/06/19 05:44:18;;;;;;;4.07;2.20;;;26.00;56.20;;;;;;2338404;53;20912;-65
2021/06/19 05:46:46;;;;;;;4.90;2.80;;;26.00;56.30;;;;;;2335997;53;20958;-68
2021/06/19 05:49:12;;;;;;;4.75;2.60;;;26.10;56.30;;;;;;2345152;53;20976;-64
2021/06/19 05:51:41;;;;;;;4.97;2.85;;;26.20;56.40;;;;;;2331711;52;21115;-64
2021/06/19 05:54:07;;;;;;;4.47;2.55;;;26.20;56.30;;;;;;2328811;53;20945;-65
2021/06/19 05:56:33;;;;;;;4.40;1.80;;;26.30;56.30;;;;;;2317372;54;20976;-64
2021/06/19 05:59:00;;;;;;;3.50;1.90;;;26.40;56.30;;;;;;2319913;53;20980;-65
2021/06/19 06:01:31;;;;;;;8.10;2.60;;;26.40;56.20;;;;;;2321771;53;21757;-63
2021/06/19 06:03:58;;;;;;;5.78;2.87;;;26.50;56.10;;;;;;2499369;53;20948;-64
2021/06/19 06:06:24;;;;;;;4.20;2.78;;;26.60;56.20;;;;;;2573508;52;21518;-63
2021/06/19 06:08:50;;;;;;;4.75;2.40;;;26.70;56.20;;;;;;2299474;53;21019;-64
2021/06/19 06:11:17;;;;;;;3.50;2.08;;;26.70;56.00;;;;;;2309182;53;20991;-64
2021/06/19 06:13:43;;;;;;;3.33;1.80;;;26.80;56.00;;;;;;2326400;54;20921;-64
2021/06/19 06:16:09;;;;;;;3.65;2.00;;;26.90;55.80;;;;;;2328303;54;20951;-64
2021/06/19 06:18:35;;;;;;;3.00;1.70;;;27.00;55.70;;;;;;2328746;54;21045;-64
2021/06/19 06:21:02;;;;;;;4.82;2.20;;;27.00;55.60;;;;;;2329688;54;21718;-63
2021/06/19 06:23:29;;;;;;;4.95;1.92;;;27.10;55.70;;;;;;2335181;54;21008;-64
2021/06/19 06:25:56;;;;;;;3.70;1.75;;;27.20;55.60;;;;;;2332632;54;20980;-64
2021/06/19 06:28:22;;;;;;;4.05;1.60;;;27.30;55.40;;;;;;2351895;53;21026;-63
2021/06/19 06:30:50;;;;;;;3.25;1.45;;;27.40;55.10;;;;;;2341904;54;21016;-64
2021/06/19 06:33:19;;;;;;;2.67;1.42;;;27.50;54.80;;;;;;2332442;54;20944;-64
2021/06/19 06:35:46;;;;;;;2.67;1.33;;;27.60;54.60;;;;;;2331573;54;20985;-64
2021/06/19 06:38:12;;;;;;;2.35;1.20;;;27.70;54.50;;;;;;2579773;53;20919;-64
2021/06/19 06:40:40;;;;;;;3.87;1.40;;;27.70;54.50;;;;;;2328730;54;21052;-64
2021/06/19 06:43:07;;;;;;;3.97;1.40;;;27.80;54.40;;;;;;2336258;54;21024;-62
2021/06/19 06:45:34;;;;;;;3.25;1.60;;;27.90;54.40;;;;;;2339023;54;21000;-65
2021/06/19 06:48:00;;;;;;;3.42;1.20;;;27.90;54.00;;;;;;2330437;54;20996;-63
2021/06/19 06:50:26;;;;;;;3.87;1.15;;;28.00;53.70;;;;;;2337379;54;21963;-64
2021/06/19 06:52:53;;;;;;;2.20;1.12;;;28.10;53.60;;;;;;2334212;54;20968;-64
2021/06/19 06:55:20;;;;;;;3.83;1.27;;;28.20;53.50;;;;;;2342302;54;21052;-65
2021/06/19 06:57:46;;;;;;;2.87;1.42;;;28.30;53.30;;;;;;2330916;54;21022;-66
2021/06/19 07:00:13;;;;;;;3.20;1.40;;;28.40;53.10;;;;;;2414925;53;20956;-64
2021/06/19 07:02:40;;;;;;;4.07;1.20;;;28.50;52.80;;;;;;2326755;54;20960;-66
2021/06/19 07:05:10;;;;;;;2.50;1.20;;;28.50;52.70;;;;;;2343057;54;21083;-66
2021/06/19 07:07:37;;;;;;;3.00;1.45;;;28.60;52.80;;;;;;2341369;53;21025;-64
2021/06/19 07:10:05;;;;;;;3.78;1.60;;;28.70;52.70;;;;;;2336068;54;20973;-68
2021/06/19 07:12:32;;;;;;;3.42;1.48;;;28.80;52.60;;;;;;2329716;54;20995;-69
2021/06/19 07:14:58;;;;;;;3.55;1.58;;;28.90;52.40;;;;;;2331449;54;20948;-64
2021/06/19 07:17:24;;;;;;;2.65;1.40;;;29.00;52.30;;;;;;2332436;54;20965;-65
2021/06/19 07:19:50;;;;;;;2.92;1.40;;;29.10;52.30;;;;;;2335154;54;21029;-63
2021/06/19 07:22:18;;;;;;;2.60;1.40;;;29.20;52.20;;;;;;2334577;54;20928;-66
2021/06/19 07:24:44;;;;;;;3.25;1.30;;;29.20;52.10;;;;;;2341222;54;21532;-67
2021/06/19 07:27:10;;;;;;;3.55;1.42;;;29.40;52.20;;;;;;2482831;53;21954;-65
2021/06/19 07:29:36;;;;;;;3.10;1.30;;;29.40;52.20;;;;;;2332161;54;20925;-65
2021/06/19 07:32:04;;;;;;;5.30;1.87;;;29.60;52.20;;;;;;2341112;53;22111;-65
2021/06/19 07:34:30;;;;;;;3.35;1.48;;;29.70;52.20;;;;;;2339775;54;20914;-65
2021/06/19 07:37:01;;;;;;;4.97;1.55;;;29.80;52.00;;;;;;2338557;54;20978;-63
2021/06/19 07:39:27;;;;;;;3.05;1.40;;;29.90;51.70;;;;;;2327719;54;21119;-65
2021/06/19 07:41:54;;;;;;;4.30;1.52;;;30.00;51.40;;;;;;2328572;54;20972;-64
2021/06/19 07:44:20;;;;;;;3.00;1.50;;;30.10;51.30;;;;;;2335294;54;20992;-64
2021/06/19 07:46:47;;;;;;;3.50;1.40;;;30.20;51.00;;;;;;2339311;53;20936;-64
2021/06/19 08:03:03;;;;;;;3.12;1.33;;;30.50;50.50;;;;;;2196910;56;20972;-79
2021/06/19 08:05:29;;;;;;;4.07;1.42;;;30.50;50.50;;;;;;2210911;57;20988;-82
2021/06/19 08:07:55;;;;;;;3.78;1.62;;;30.50;50.30;;;;;;2189351;57;22020;-80
2021/06/19 08:10:22;;;;;;;2.85;1.77;;;30.60;50.10;;;;;;2202728;57;21042;-80
2021/06/19 08:12:50;;;;;;;5.37;1.50;;;30.60;50.00;;;;;;2418528;55;21022;-80
2021/06/19 08:15:16;;;;;;;4.60;1.90;;;30.70;49.90;;;;;;2420812;55;21114;-83
2021/06/19 08:17:42;;;;;;;3.37;1.37;;;30.70;50.00;;;;;;2203500;57;21008;-79
2021/06/19 08:20:09;;;;;;;3.30;1.65;;;30.80;49.90;;;;;;2421505;56;21951;-80
2021/06/19 08:22:36;;;;;;;3.00;1.77;;;30.90;49.80;;;;;;2195156;57;20971;-80
2021/06/19 08:25:03;;;;;;;3.22;1.95;;;30.90;49.70;;;;;;2438009;55;21035;-79
2021/06/19 08:27:29;;;;;;;3.37;1.85;;;30.90;50.20;;;;;;2235567;55;21039;-80
2021/06/19 08:29:56;;;;;;;4.20;1.87;;;31.00;49.50;;;;;;2472157;55;21005;-80
2021/06/19 08:32:22;;;;;;;4.60;2.12;;;31.00;49.30;;;;;;2236885;56;21023;-79
2021/06/19 08:34:48;;;;;;;4.07;2.20;;;31.10;49.50;;;;;;2216926;56;21488;-80
2021/06/19 08:37:15;;;;;;;3.20;1.83;;;31.20;49.50;;;;;;2421987;56;21023;-80
2021/06/19 08:39:41;;;;;;;5.60;2.22;;;31.20;49.30;;;;;;2442937;56;21007;-80
2021/06/19 08:42:07;;;;;;;3.22;1.80;;;31.30;49.30;;;;;;2219058;56;21490;-80
2021/06/19 08:44:33;;;;;;;4.03;2.28;;;31.30;49.20;;;;;;2433748;56;22026;-80
2021/06/19 08:47:03;;;;;;;3.85;1.92;;;31.40;49.30;;;;;;2422022;56;21018;-81
2021/06/19 08:49:29;;;;;;;5.55;2.35;;;31.40;49.30;;;;;;2203061;56;21649;-78
2021/06/19 08:51:58;;;;;;;4.97;2.55;;;31.50;49.30;;;;;;2203257;56;21042;-81
2021/06/19 08:54:25;;;;;;;4.12;2.30;;;31.50;49.30;;;;;;2204123;56;21057;-80
2021/06/19 08:56:51;;;;;;;4.87;2.50;;;31.60;49.30;;;;;;2208565;56;20993;-79
2021/06/19 08:59:17;;;;;;;4.35;2.25;;;31.70;49.30;;;;;;2204628;56;21069;-81
2021/06/19 09:01:44;;;;;;;4.60;2.70;;;31.70;49.20;;;;;;2204284;56;21082;-82
2021/06/19 09:04:11;;;;;;;5.45;2.78;;;31.80;49.00;;;;;;2207757;56;20961;-80
2021/06/19 09:06:44;;;;;;;7.40;2.97;;;31.80;49.00;;;;;;2437977;56;20972;-79
2021/06/19 09:09:16;;;;;;;4.85;2.67;;;31.90;49.10;;;;;;2217182;56;21520;-80
2021/06/19 09:11:47;;;;;;;5.68;3.17;;;32.00;48.90;;;;;;2217355;56;20956;-80
2021/06/19 09:14:18;;;;;;;5.62;3.47;;;32.00;48.90;;;;;;2415837;56;21535;-81
2021/06/19 09:16:55;;;;;;;5.20;3.03;;;32.00;48.70;;;;;;2414103;56;22245;-81
2021/06/19 09:19:28;;;;;;;4.95;2.03;;;32.00;48.60;;;;;;2422118;56;20988;-81
2021/06/19 09:22:16;;;;;;;3.85;1.90;;;32.10;48.20;;;;;;2229761;56;21018;-80
2021/06/19 09:24:56;;;;;;;3.62;2.03;;;32.20;47.90;;;;;;2427986;56;20997;-79
2021/06/19 09:27:46;;;;;;;4.47;1.85;;;32.20;47.90;;;;;;2204507;56;21018;-80
2021/06/19 09:30:24;;;;;;;5.43;1.77;;;32.20;47.50;;;;;;2186545;56;20986;-81
2021/06/19 09:33:01;;;;;;;3.53;2.10;;;32.20;47.60;;;;;;2206481;56;20971;-80
2021/06/19 09:35:29;;;;;;;6.87;2.55;;;32.30;47.40;;;;;;2208438;56;21074;-82
2021/06/19 09:38:06;;;;;;;4.18;2.40;;;32.20;47.30;;;;;;2437264;56;21039;-80
2021/06/19 09:40:53;;;;;;;3.92;1.98;;;32.30;47.40;;;;;;2212580;56;21023;-81
2021/06/19 09:43:25;;;;;;;4.25;2.30;;;32.30;47.60;;;;;;2195043;56;21030;-80
2021/06/19 09:46:09;;;;;;;4.05;1.90;;;32.20;47.60;;;;;;2223355;56;21071;-79
2021/06/19 09:48:46;;;;;;;3.65;2.08;;;32.30;47.20;;;;;;2186500;56;21056;-79
2021/06/19 09:51:23;;;;;;;4.72;2.40;;;32.30;47.40;;;;;;2184144;56;20994;-80
2021/06/19 09:54:03;;;;;;;3.67;1.90;;;32.30;47.30;;;;;;2213433;56;21081;-82
2021/06/19 09:56:29;;;;;;;5.95;2.03;;;32.40;47.40;;;;;;2207566;56;20999;-81
2021/06/19 09:58:58;;;;;;;3.87;2.28;;;32.40;47.60;;;;;;2414597;56;20969;-82
2021/06/19 10:01:37;;;;;;;4.32;2.45;;;32.40;47.50;;;;;;2414654;56;21005;-84
2021/06/19 10:04:04;;;;;;;4.10;2.20;;;32.40;47.50;;;;;;2219334;56;21031;-86
2021/06/19 10:06:30;;;;;;;5.68;3.03;;;32.50;47.60;;;;;;2209337;56;21868;-84
2021/06/19 10:08:57;;;;;;;5.12;2.40;;;32.50;47.60;;;;;;2226384;56;20979;-84
2021/06/19 10:11:26;;;;;;;6.57;2.70;;;32.50;47.90;;;;;;2229945;56;21059;-85
2021/06/19 10:14:01;;;;;;;6.05;2.28;;;32.60;47.90;;;;;;2212686;56;21083;-83
2021/06/19 10:16:29;;;;;;;4.43;1.92;;;32.60;47.70;;;;;;2434387;56;21418;-85
2021/06/19 10:18:55;;;;;;;9.35;2.78;;;32.70;47.60;;;;;;2208940;56;20974;-83
2021/06/19 10:21:24;;;;;;;16.08;4.57;;;32.80;47.70;;;;;;2230892;56;20980;-83
2021/06/19 10:23:50;;;;;;;5.95;2.40;;;32.80;47.50;;;;;;2218441;56;21010;-82
2021/06/19 10:26:25;;;;;;;6.82;2.58;;;32.90;47.60;;;;;;2416858;56;20973;-82
2021/06/19 10:28:57;;;;;;;3.35;1.73;;;32.90;47.70;;;;;;2220470;56;20998;-83
2021/06/19 10:31:24;;;;;;;6.43;2.45;;;33.00;47.50;;;;;;2223781;56;20975;-84
2021/06/19 10:33:50;;;;;;;6.05;2.28;;;33.10;47.30;;;;;;2232095;56;21697;-82
2021/06/19 10:36:16;;;;;;;4.95;2.35;;;33.10;47.30;;;;;;2210970;56;21879;-84
2021/06/19 10:39:35;;;;;;;4.47;2.37;;;33.20;47.00;;;;;;2210685;56;21018;-82
2021/06/19 10:42:02;;;;;;;4.07;2.10;;;33.20;46.60;;;;;;2224103;56;20969;-81
2021/06/19 10:51:18;;;;;;;5.82;2.25;;;33.30;46.70;;;;;;2214769;56;21558;-84
2021/06/19 10:54:15;;;;;;;3.20;1.60;;;33.60;46.90;;;;;;2395226;56;21017;-82
2021/06/19 10:56:59;;;;;;;4.78;1.92;;;33.60;46.60;;;;;;2232944;56;21690;-84
2021/06/19 10:59:27;;;;;;;3.33;1.70;;;33.70;46.70;;;;;;2233634;56;21423;-83
2021/06/19 11:01:55;;;;;;;5.47;1.75;;;33.70;46.70;;;;;;2207776;56;20997;-82
2021/06/19 11:07:55;;;;;;;3.97;1.90;;;33.70;47.10;;;;;;2417484;56;20982;-84
2021/06/19 11:10:50;;;;;;;4.30;1.87;;;33.90;46.50;;;;;;2210900;56;21139;-84
2021/06/19 11:15:09;;;;;;;4.93;1.90;;;34.00;45.60;;;;;;2417534;56;20954;-82
2021/06/19 11:17:44;;;;;;;5.43;1.55;;;34.00;45.70;;;;;;2417941;56;20994;-85
2021/06/19 11:20:31;;;;;;;3.87;1.90;;;34.10;45.40;;;;;;2430921;56;20975;-82
2021/06/19 11:23:03;;;;;;;3.83;1.67;;;34.20;44.90;;;;;;2215755;56;21435;-83
2021/06/19 11:25:50;;;;;;;;;;;34.20;45.20;;;;;;2218337;56;21595;-82
2021/06/19 11:28:34;;;;;;;5.55;1.87;;;34.30;45.20;;;;;;2223043;56;20080;-82
2021/06/19 11:31:05;;;;;;;3.97;1.92;;;34.40;44.80;;;;;;2392011;56;21122;-85
2021/06/19 11:33:38;;;;;;;3.97;1.80;;;34.30;45.10;;;;;;2214085;56;20992;-85
2021/06/19 11:36:25;;;;;;;4.60;1.87;;;34.40;44.70;;;;;;2448299;56;21416;-82
2021/06/19 11:38:55;;;;;;;4.25;1.90;;;34.40;44.50;;;;;;2220603;56;21011;-84
2021/06/19 11:41:34;;;;;;;8.27;2.00;;;34.40;44.70;;;;;;2228618;56;21819;-84
2021/06/19 11:44:07;;;;;;;3.40;1.85;;;34.50;44.80;;;;;;2209619;56;20961;-82
2021/06/19 11:46:33;;;;;;;6.60;2.22;;;34.50;44.60;;;;;;2235196;56;20987;-83
2021/06/19 11:49:08;;;;;;;4.60;1.90;;;34.50;44.60;;;;;;2443767;56;21011;-83
2021/06/19 11:51:47;;;;;;;4.97;1.80;;;34.60;44.80;;;;;;2212510;56;21018;-82
2021/06/19 11:54:16;;;;;;;4.95;2.37;;;34.60;44.30;;;;;;2419624;56;21002;-83
2021/06/19 11:56:42;;;;;;;5.12;2.60;;;34.70;44.30;;;;;;2418446;56;21054;-82
2021/06/19 11:59:09;;;;;;;4.20;2.20;;;34.70;44.30;;;;;;2215939;56;21477;-84
2021/06/19 12:01:37;;;;;;;5.25;1.98;;;34.70;44.00;;;;;;2221504;56;21034;-84
2021/06/19 12:04:05;;;;;;;4.22;1.90;;;34.70;43.80;;;;;;2238353;56;21294;-85
2021/06/19 12:06:35;;;;;;;5.68;2.25;;;34.80;43.90;;;;;;2218638;54;21493;-84
2021/06/19 12:09:04;;;;;;;5.72;2.20;;;34.80;43.80;;;;;;2233745;56;21311;-87
2021/06/19 12:11:32;;;;;;;4.10;2.30;;;34.90;43.70;;;;;;2397572;56;21037;-87
2021/06/19 12:13:58;;;;;;;4.50;1.95;;;34.90;43.90;;;;;;2212755;56;21134;-87
2021/06/19 12:16:37;;;;;;;3.95;1.87;;;34.90;43.40;;;;;;2237972;56;20979;-85
2021/06/19 12:19:04;;;;;;;6.25;2.47;;;35.00;43.40;;;;;;2212652;56;21545;-87
2021/06/19 12:21:34;;;;;;;3.80;1.98;;;35.00;43.30;;;;;;2211447;56;21046;-84
2021/06/19 12:24:02;;;;;;;7.60;1.98;;;35.00;43.20;;;;;;2205621;56;21788;-84
2021/06/19 12:26:28;;;;;;;4.43;2.00;;;35.00;43.10;;;;;;2418121;56;21550;-83
2021/06/19 12:28:55;;;;;;;4.75;2.20;;;35.10;43.10;;;;;;2218526;56;21048;-84
2021/06/19 12:31:23;;;;;;;4.95;2.03;;;35.10;43.40;;;;;;2217593;56;20978;-84
2021/06/19 12:34:00;;;;;;;5.70;2.00;;;35.10;43.30;;;;;;2430260;57;21399;-83
2021/06/19 12:36:27;;;;;;;4.95;2.10;;;35.10;42.90;;;;;;2213359;61;21156;-81
2021/06/19 12:38:53;;;;;;;6.32;2.30;;;35.20;43.00;;;;;;2419890;56;21097;-84
2021/06/19 12:41:19;;;;;;;5.25;2.25;;;35.20;43.00;;;;;;2433645;56;21059;-82
2021/06/19 12:43:50;;;;;;;5.68;1.73;;;35.20;42.70;;;;;;2423978;56;21054;-79
2021/06/19 12:46:22;;;;;;;3.35;1.70;;;35.20;42.90;;;;;;2212243;56;21130;-82
2021/06/19 12:48:49;;;;;;;4.70;2.22;;;35.20;43.00;;;;;;2207595;56;21017;-83
2021/06/19 12:51:31;;;;;;;3.28;1.85;;;35.20;43.00;;;;;;2441190;56;21046;-83
2021/06/19 12:54:16;;;;;;;;;;;35.30;42.90;;;;;;2213038;56;21025;-82
2021/06/19 12:56:56;;;;;;;3.62;1.80;;;35.40;43.10;;;;;;2425229;56;20100;-83
2021/06/19 12:59:22;;;;;;;4.22;1.98;;;35.40;42.70;;;;;;2418015;56;20985;-82
2021/06/19 13:02:07;;;;;;;3.87;2.00;;;35.50;42.80;;;;;;2418057;56;21017;-81
2021/06/19 13:04:34;;;;;;;3.75;1.98;;;35.50;42.70;;;;;;2421423;56;21024;-83
2021/06/19 13:07:04;;;;;;;4.85;2.22;;;35.50;42.70;;;;;;2210035;56;20964;-83
2021/06/19 13:13:02;;;;;;;5.90;1.95;;;35.50;42.70;;;;;;2207509;56;21073;-82
2021/06/19 13:15:29;;;;;;;4.85;1.80;;;35.70;42.90;;;;;;2208303;56;21034;-82
2021/06/19 13:17:55;;;;;;;5.90;2.30;;;35.70;42.70;;;;;;2203915;56;21048;-84
2021/06/19 13:20:39;;;;;;;5.82;2.30;;;35.80;42.70;;;;;;2440040;56;20981;-84
2021/06/19 13:23:17;;;;;;;5.28;2.30;;;35.80;43.20;;;;;;2213817;56;21062;-83
2021/06/19 13:25:59;;;;;;;4.75;2.37;;;35.80;42.20;;;;;;2220249;56;21303;-84
2021/06/19 13:30:17;;;;;;;3.72;2.37;;;35.80;42.20;;;;;;2436388;56;21548;-83
2021/06/19 13:32:50;;;;;;;3.85;1.70;;;35.90;42.40;;;;;;2422338;56;21053;-82
2021/06/19 13:35:17;;;;;;;3.20;2.00;;;36.00;42.40;;;;;;2203754;56;21051;-82
2021/06/19 13:37:43;;;;;;;6.35;2.33;;;36.00;42.20;;;;;;2204235;56;21032;-82
2021/06/19 13:40:10;;;;;;;5.70;2.12;;;36.00;42.10;;;;;;2415567;56;21299;-85
2021/06/19 13:42:55;;;;;;;4.37;2.00;;;36.00;42.20;;;;;;2430728;56;21019;-83
2021/06/19 13:45:21;;;;;;;4.60;2.22;;;36.00;41.90;;;;;;2230436;56;21004;-84
2021/06/19 13:47:48;;;;;;;4.35;2.50;;;36.00;42.20;;;;;;2441795;56;20947;-82
2021/06/19 13:50:14;;;;;;;4.05;1.92;;;36.10;42.30;;;;;;2203890;56;20990;-85
2021/06/19 13:52:41;;;;;;;5.43;2.20;;;36.10;42.20;;;;;;2205525;56;20977;-83
2021/06/19 13:55:08;;;;;;;4.30;2.35;;;36.10;41.90;;;;;;2415422;56;20966;-83
2021/06/19 13:57:34;;;;;;;5.97;2.53;;;36.20;41.90;;;;;;2204010;56;22086;-82
2021/06/19 14:00:00;;;;;;;7.57;3.08;;;36.20;42.30;;;;;;2204849;56;21049;-82
2021/06/19 14:02:26;;;;;;;4.93;2.25;;;36.30;42.30;;;;;;2415256;55;21005;-83
2021/06/19 14:04:53;;;;;;;5.70;2.28;;;36.30;42.20;;;;;;2460038;55;21110;-85
2021/06/19 14:07:20;;;;;;;5.50;2.33;;;36.40;42.20;;;;;;2456323;55;20971;-83
2021/06/19 14:09:46;;;;;;;5.37;2.20;;;36.50;42.30;;;;;;2456673;55;21957;-82
2021/06/19 14:12:12;;;;;;;4.55;2.00;;;36.60;42.30;;;;;;2432161;55;21034;-84
2021/06/19 14:14:39;;;;;;;6.93;2.55;;;36.60;42.20;;;;;;2456284;55;21026;-82
2021/06/19 14:17:05;;;;;;;5.87;2.20;;;36.70;41.90;;;;;;2483058;55;20973;-82
2021/06/19 14:19:31;;;;;;;5.93;2.65;;;36.70;41.90;;;;;;2455891;55;21424;-84
2021/06/19 14:21:57;;;;;;;6.05;2.20;;;36.70;41.70;;;;;;2481518;55;22161;-82
2021/06/19 14:24:24;;;;;;;6.28;2.53;;;36.80;41.80;;;;;;2456711;55;21042;-83
2021/06/19 14:27:11;;;;;;;4.35;1.90;;;36.80;41.50;;;;;;2474578;55;20966;-85
2021/06/19 14:29:37;;;;;;;3.78;2.22;;;36.90;41.40;;;;;;2244837;55;21034;-86
2021/06/19 14:32:06;;;;;;;4.90;2.05;;;36.90;41.20;;;;;;2243347;55;20975;-84
2021/06/19 14:45:06;;;;;;;4.10;1.80;;;37.20;41.30;;;;;;2237022;55;21026;-82
2021/06/19 14:47:34;;;;;;;4.55;2.30;;;37.20;41.20;;;;;;2455709;55;21098;-84
2021/06/19 14:50:01;;;;;;;5.03;2.67;;;37.20;41.10;;;;;;2241423;55;21018;-83
2021/06/19 14:52:28;;;;;;;4.60;2.22;;;37.30;41.20;;;;;;2237070;55;22180;-84
2021/06/19 14:54:54;;;;;;;4.57;2.15;;;37.30;41.00;;;;;;2480205;55;20982;-85
2021/06/19 14:57:20;;;;;;;4.45;2.12;;;37.40;41.10;;;;;;2261532;55;21016;-83
2021/06/19 14:59:46;;;;;;;4.80;2.45;;;37.40;41.10;;;;;;2243862;55;21083;-85
2021/06/19 15:02:13;;;;;;;3.55;1.98;;;37.50;41.00;;;;;;2253446;55;21043;-82
2021/06/19 15:04:39;;;;;;;4.47;2.37;;;37.50;40.90;;;;;;2455863;55;21109;-84
2021/06/19 15:07:05;;;;;;;5.90;2.28;;;37.50;40.60;;;;;;2481343;55;21444;-80
2021/06/19 15:09:31;;;;;;;4.18;2.15;;;37.50;40.40;;;;;;2235967;55;21030;-82
2021/06/19 15:11:58;;;;;;;7.10;2.60;;;37.50;40.20;;;;;;2264790;55;20964;-83
2021/06/19 15:14:24;;;;;;;3.70;2.17;;;37.50;40.10;;;;;;2461602;55;21603;-82
2021/06/19 15:16:50;;;;;;;4.25;2.12;;;37.40;40.40;;;;;;2266292;55;21024;-86
2021/06/19 15:19:16;;;;;;;4.93;2.37;;;37.40;40.10;;;;;;2255122;55;21098;-86
2021/06/19 15:21:43;;;;;;;5.32;2.30;;;37.40;40.10;;;;;;2454900;55;21046;-80
2021/06/19 15:24:09;;;;;;;4.65;2.17;;;37.40;40.10;;;;;;2476911;55;21056;-82
2021/06/19 15:26:35;;;;;;;4.62;2.03;;;37.30;40.10;;;;;;2241288;55;20975;-87
2021/06/19 15:29:14;;;;;;;5.18;2.33;;;37.30;40.10;;;;;;2458843;55;21030;-84
2021/06/19 15:31:40;;;;;;;4.07;2.15;;;37.30;40.00;;;;;;2243506;55;20987;-85
2021/06/19 15:34:07;;;;;;;7.62;2.30;;;37.30;39.80;;;;;;2247550;55;21023;-85
2021/06/19 15:36:33;;;;;;;4.22;2.40;;;37.20;39.90;;;;;;2479868;55;21068;-86
2021/06/19 15:38:59;;;;;;;3.80;2.30;;;37.20;40.00;;;;;;2243229;55;21828;-85
2021/06/19 15:41:26;;;;;;;4.45;2.17;;;37.20;40.10;;;;;;2262967;55;21008;-86
2021/06/19 15:43:52;;;;;;;5.22;2.20;;;37.20;40.00;;;;;;2458741;55;21032;-90
2021/06/19 15:46:18;;;;;;;4.00;2.62;;;37.20;39.90;;;;;;2456901;55;21006;-84
2021/06/19 15:48:47;;;;;;;4.28;2.15;;;37.20;39.80;;;;;;2458389;55;21031;-87
2021/06/19 15:51:14;;;;;;;3.90;2.22;;;37.10;39.80;;;;;;2243044;55;21046;-87
2021/06/19 15:53:40;;;;;;;4.07;2.10;;;37.10;39.70;;;;;;2241180;55;21122;-86
2021/06/19 15:56:07;;;;;;;4.07;2.22;;;37.10;40.40;;;;;;2484426;55;20992;-86
2021/06/19 15:58:34;;;;;;;5.47;2.58;;;37.10;39.90;;;;;;2457711;55;22102;-88
2021/06/19 16:01:01;;;;;;;6.00;2.50;;;37.00;39.90;;;;;;2249196;55;21064;-83
2021/06/19 16:03:27;;;;;;;6.55;2.40;;;37.00;40.00;;;;;;2464811;55;21002;-80
2021/06/19 16:05:53;;;;;;;6.70;2.50;;;37.00;40.00;;;;;;2453482;55;21535;-82
2021/06/19 16:08:19;;;;;;;5.72;2.62;;;37.00;40.10;;;;;;2459813;55;20986;-80
2021/06/19 16:10:46;;;;;;;7.37;2.40;;;37.00;40.20;;;;;;2459288;55;21030;-80
2021/06/19 16:13:12;;;;;;;4.97;2.15;;;37.00;40.40;;;;;;2236526;55;21595;-81
2021/06/19 16:15:38;;;;;;;5.43;2.87;;;37.00;40.20;;;;;;2236851;55;21022;-80
2021/06/19 16:18:05;;;;;;;5.30;2.53;;;37.00;40.00;;;;;;2457482;55;20969;-80
2021/06/19 16:20:31;;;;;;;6.12;2.67;;;37.00;40.20;;;;;;2236351;55;20973;-81
2021/06/19 16:22:57;;;;;;;5.47;2.28;;;36.90;40.10;;;;;;2233052;55;21385;-80
2021/06/19 16:25:24;;;;;;;4.37;2.15;;;36.90;40.10;;;;;;2238599;55;22030;-82
2021/06/19 16:27:50;;;;;;;4.65;2.12;;;36.80;40.10;;;;;;2261588;55;21047;-82
2021/06/19 16:30:17;;;;;;;4.60;2.33;;;36.70;40.20;;;;;;2243956;55;21015;-81
2021/06/19 16:32:45;;;;;;;4.50;1.87;;;36.70;40.50;;;;;;2256055;55;20998;-83
2021/06/19 16:35:12;;;;;;;3.78;2.20;;;36.70;40.40;;;;;;2471420;55;21063;-83
2021/06/19 16:37:39;;;;;;;4.75;2.17;;;36.60;40.70;;;;;;2464716;55;20998;-81
2021/06/19 16:40:06;;;;;;;3.55;1.98;;;36.60;40.80;;;;;;2242230;55;21914;-82
2021/06/19 16:42:32;;;;;;;4.45;2.25;;;36.50;40.90;;;;;;2238280;55;20954;-81
2021/06/19 16:44:58;;;;;;;5.70;3.00;;;36.50;40.90;;;;;;2456030;55;21069;-83
2021/06/19 16:47:25;;;;;;;7.22;2.62;;;36.50;40.90;;;;;;2456361;55;20974;-81
2021/06/19 16:49:51;;;;;;;5.15;2.78;;;36.40;40.80;;;;;;2457031;55;21550;-81
2021/06/19 16:52:17;;;;;;;5.12;2.92;;;36.40;40.90;;;;;;2238479;55;21011;-81
2021/06/19 16:54:44;;;;;;;6.72;3.20;;;36.40;40.70;;;;;;2240419;55;21370;-84
2021/06/19 16:57:10;;;;;;;4.75;2.30;;;36.40;40.60;;;;;;2246185;55;20982;-85
2021/06/19 16:59:36;;;;;;;4.00;2.40;;;36.40;40.40;;;;;;2264512;55;20963;-85
2021/06/19 17:02:03;;;;;;;3.87;2.40;;;36.40;40.30;;;;;;2460045;55;21373;-85
2021/06/19 17:04:29;;;;;;;5.75;2.50;;;36.40;40.60;;;;;;2243953;55;20938;-87
2021/06/19 17:06:55;;;;;;;3.85;2.37;;;36.30;40.60;;;;;;2478705;55;21015;-87
2021/06/19 17:09:22;;;;;;;4.37;2.08;;;36.30;40.60;;;;;;2246871;55;21010;-84
2021/06/19 17:11:48;;;;;;;4.97;2.20;;;36.30;40.50;;;;;;2483445;55;21489;-86
2021/06/19 17:14:14;;;;;;;3.67;2.20;;;36.20;40.60;;;;;;2247126;55;22049;-81
2021/06/19 17:16:40;;;;;;;5.97;2.47;;;36.20;40.60;;;;;;2478719;55;21023;-88
2021/06/19 17:19:07;;;;;;;5.65;2.20;;;36.20;40.80;;;;;;2254980;55;20960;-86
2021/06/19 17:21:33;;;;;;;5.35;2.00;;;36.10;40.80;;;;;;2475883;55;20962;-89
2021/06/19 17:24:00;;;;;;;4.50;2.20;;;36.10;41.00;;;;;;2246754;55;21024;-87
2021/06/19 17:26:26;;;;;;;7.65;2.92;;;36.10;41.20;;;;;;2307980;52;132263;-63
2021/06/19 17:28:52;;;;;;;4.65;2.20;;;36.10;41.50;;;;;;2356494;53;21005;-66
2021/06/19 17:31:19;;;;;;;4.85;1.98;;;36.00;42.10;;;;;;2344942;53;21011;-71
2021/06/19 17:33:45;;;;;;;4.47;2.47;;;36.00;41.50;;;;;;2354411;53;20950;-66
2021/06/19 17:36:11;;;;;;;5.95;2.42;;;36.00;41.70;;;;;;2371696;53;21976;-69
2021/06/19 17:38:38;;;;;;;7.47;2.60;;;36.00;41.60;;;;;;2364542;53;20966;-71
2021/06/19 17:41:07;;;;;;;4.97;2.50;;;36.00;41.70;;;;;;2328242;53;21031;-67
2021/06/19 17:43:33;;;;;;;5.25;2.55;;;36.00;41.80;;;;;;2316255;53;21753;-66
2021/06/19 17:45:59;;;;;;;4.57;2.35;;;36.00;41.80;;;;;;2331374;53;21034;-68
2021/06/19 17:48:26;;;;;;;5.18;1.95;;;36.00;41.80;;;;;;2349470;53;20947;-67
2021/06/19 17:50:52;;;;;;;5.47;2.22;;;36.00;41.80;;;;;;2345773;53;20920;-66
2021/06/19 17:53:19;;;;;;;4.18;2.08;;;36.00;41.80;;;;;;2349013;53;20947;-67
2021/06/19 17:55:46;;;;;;;5.93;2.50;;;36.00;41.90;;;;;;2350797;53;21418;-66
2021/06/19 17:58:13;;;;;;;12.02;3.37;;;36.00;41.90;;;;;;2344126;53;20950;-68
2021/06/19 18:00:39;;;;;;;5.50;2.25;;;36.00;41.80;;;;;;2546942;52;20951;-70
2021/06/19 18:03:05;;;;;;;4.20;2.08;;;36.00;41.70;;;;;;2348174;53;20954;-66
2021/06/19 18:05:32;;;;;;;8.00;2.78;;;36.00;41.80;;;;;;2347832;53;21001;-66
2021/06/19 18:07:58;;;;;;;6.93;2.28;;;36.00;42.00;;;;;;2347257;57;21052;-66
2021/06/19 18:10:24;;;;;;;5.68;2.45;;;36.00;42.10;;;;;;2347612;57;21118;-71
2021/06/19 18:12:52;;;;;;;5.35;2.83;;;36.00;42.10;;;;;;2337558;54;20924;-65
2021/06/19 18:15:19;;;;;;;3.50;2.08;;;36.00;42.20;;;;;;2345836;54;21441;-68
2021/06/19 18:17:46;;;;;;;5.40;2.45;;;36.00;42.10;;;;;;2347458;53;20934;-66
2021/06/19 18:20:13;;;;;;;6.07;2.20;;;36.00;42.20;;;;;;2346630;53;21045;-66
2021/06/19 18:22:40;;;;;;;4.93;2.60;;;35.90;42.10;;;;;;2344555;54;20924;-67
2021/06/19 18:25:09;;;;;;;5.20;2.08;;;35.90;42.20;;;;;;2344761;53;20928;-66
2021/06/19 18:27:38;;;;;;;5.47;2.35;;;35.90;42.40;;;;;;2347734;53;20940;-67
2021/06/19 18:30:05;;;;;;;4.00;2.35;;;35.80;42.40;;;;;;2589243;52;21849;-64
2021/06/19 18:32:32;;;;;;;3.58;1.95;;;35.80;42.50;;;;;;2348096;53;21727;-66
2021/06/19 18:34:58;;;;;;;4.93;2.17;;;35.70;42.60;;;;;;2345787;53;21058;-68
2021/06/19 18:37:24;;;;;;;4.82;2.42;;;35.60;42.80;;;;;;2344909;53;21015;-66
2021/06/19 18:39:50;;;;;;;5.53;2.40;;;35.50;43.00;;;;;;2586452;52;20930;-68
2021/06/19 18:42:19;;;;;;;5.45;2.45;;;35.50;43.20;;;;;;2349883;54;20998;-67
2021/06/19 18:44:48;;;;;;;5.07;2.25;;;35.40;43.30;;;;;;2346314;53;20989;-65
2021/06/19 18:47:14;;;;;;;4.35;2.55;;;35.40;43.50;;;;;;2346965;53;20990;-67
2021/06/19 18:49:43;;;;;;;5.18;2.65;;;35.20;43.40;;;;;;2347536;53;21813;-66
2021/06/19 18:52:10;;;;;;;4.95;2.53;;;35.10;43.70;;;;;;2347442;53;21094;-66
2021/06/19 18:54:44;;;;;;;4.12;2.60;;;35.00;43.80;;;;;;2352233;53;20934;-66
2021/06/19 18:57:16;;;;;;;5.97;2.85;;;34.90;43.90;;;;;;2348767;53;21010;-68
2021/06/19 18:59:42;;;;;;;4.20;2.42;;;34.80;44.20;;;;;;2349290;53;21557;-67
2021/06/19 19:02:09;;;;;;;4.45;2.75;;;34.70;44.10;;;;;;2390094;53;21293;-67
2021/06/19 19:04:35;;;;;;;4.95;2.78;;;34.60;44.20;;;;;;2346042;53;21861;-66
2021/06/19 19:07:03;;;;;;;5.28;2.80;;;34.40;44.30;;;;;;2345033;53;20970;-64
2021/06/19 19:09:30;;;;;;;4.15;2.85;;;34.30;44.40;;;;;;2587430;52;20922;-65
2021/06/19 19:12:01;;;;;;;7.72;2.62;;;34.20;44.50;;;;;;2348445;53;21792;-69